^^
Your Local Weather - Clay, NY Station Historical Data
Daily Summary for February 5, 2017 Units:  English    Metric   Both
« Previous Day
Next Day »
Daily Weekly Monthly Yearly Custom
  High: Low: Average:
Temperature: 33.4 °F 14.9 °F 27.1 °F
Dew Point: 28.2 °F 9.1 °F 19.1 °F
Humidity: 91% 42% 73%
Wind Speed: 8.0mph 0.0mph 2.7mph
Wind Gust: 14.0mph - -
Wind- - WSW
Pressure: 30.11 in 29.74 in -
Precipitation: 0.01 in    
Historical Graphs
 
 
Tabular Data for February 5, 2017
Time Temperature Dew Point Pressure Wind Wind Speed Wind Gust Humidity Rainfall Rate (Hourly) solar
00:02 17.7 °F 12.3 °F 30.11 in Calm     79% 0.00 in 0 W/m2
00:08 17.4 °F 12.3 °F 30.11 in Calm   1.0 mph 80% 0.00 in 0 W/m2
00:13 17.2 °F 12.1 °F 30.11 in Calm     80% 0.00 in 0 W/m2
00:20 16.9 °F 11.8 °F 30.10 in Calm     80% 0.00 in 0 W/m2
00:25 16.7 °F 11.6 °F 30.10 in Calm     80% 0.00 in 0 W/m2
00:32 16.7 °F 11.6 °F 30.10 in Calm     80% 0.00 in 0 W/m2
00:38 16.9 °F 11.8 °F 30.10 in Calm     80% 0.00 in 0 W/m2
00:43 17.2 °F 12.1 °F 30.09 in Calm     80% 0.00 in 0 W/m2
00:49 17.2 °F 11.8 °F 30.08 in Calm     79% 0.00 in 0 W/m2
00:56 17.3 °F 11.9 °F 30.08 in Calm     79% 0.00 in 0 W/m2
01:02 17.6 °F 12.5 °F 30.08 in Calm     80% 0.00 in 0 W/m2
01:08 17.8 °F 12.7 °F 30.08 in Calm     80% 0.00 in 0 W/m2
01:14 17.9 °F 12.2 °F 30.07 in Calm   1.0 mph 78% 0.00 in 0 W/m2
01:20 18.1 °F 12.4 °F 30.07 in Calm     78% 0.00 in 0 W/m2
01:26 18.7 °F 12.4 °F 30.07 in Calm   2.0 mph 76% 0.00 in 0 W/m2
01:32 19.3 °F 12.7 °F 30.07 in Calm     75% 0.00 in 0 W/m2
01:38 19.7 °F 12.8 °F 30.05 in Calm     74% 0.00 in 0 W/m2
01:44 20.4 °F 12.8 °F 30.05 in Calm     72% 0.00 in 0 W/m2
01:50 21.2 °F 12.9 °F 30.05 in Calm     70% 0.00 in 0 W/m2
01:56 21.9 °F 13.3 °F 30.05 in Calm   2.0 mph 69% 0.00 in 0 W/m2
02:02 23.4 °F 13.0 °F 30.03 in South 1.0 mph 1.0 mph 64% 0.00 in 0 W/m2
02:08 24.0 °F 12.9 °F 30.03 in South 1.0 mph 2.0 mph 62% 0.00 in 0 W/m2
02:14 23.8 °F 13.0 °F 30.02 in Calm   1.0 mph 63% 0.00 in 0 W/m2
02:20 23.5 °F 12.4 °F 30.03 in Calm   1.0 mph 62% 0.00 in 0 W/m2
02:26 23.8 °F 12.3 °F 30.02 in South 1.0 mph 2.0 mph 61% 0.00 in 0 W/m2
02:32 23.7 °F 12.2 °F 30.01 in South 1.0 mph 2.0 mph 61% 0.00 in 0 W/m2
02:38 23.5 °F 12.0 °F 30.01 in South 1.0 mph 3.0 mph 61% 0.00 in 0 W/m2
02:44 23.2 °F 13.2 °F 30.00 in South 1.0 mph 1.0 mph 65% 0.00 in 0 W/m2
02:50 22.5 °F 13.5 °F 29.99 in Calm     68% 0.00 in 0 W/m2
02:56 22.8 °F 12.4 °F 29.99 in Calm   1.0 mph 64% 0.00 in 0 W/m2
03:02 24.0 °F 12.1 °F 30.00 in South 2.0 mph 3.0 mph 60% 0.00 in 0 W/m2
03:08 24.5 °F 12.2 °F 30.00 in South 2.0 mph 3.0 mph 59% 0.00 in 0 W/m2
03:14 24.5 °F 13.0 °F 29.99 in South 1.0 mph 2.0 mph 61% 0.00 in 0 W/m2
03:20 23.9 °F 12.8 °F 29.99 in South 2.0 mph 2.0 mph 62% 0.00 in 0 W/m2
03:26 22.6 °F 13.6 °F 29.98 in South 1.0 mph 2.0 mph 68% 0.00 in 0 W/m2
03:32 21.9 °F 12.6 °F 29.97 in Calm     67% 0.00 in 0 W/m2
03:38 21.7 °F 12.8 °F 29.97 in Calm     68% 0.00 in 0 W/m2
03:44 21.0 °F 12.4 °F 29.96 in Calm     69% 0.00 in 0 W/m2
03:50 19.9 °F 11.7 °F 29.96 in Calm   1.0 mph 70% 0.00 in 0 W/m2
03:56 19.0 °F 11.1 °F 29.96 in South 1.0 mph 1.0 mph 71% 0.00 in 0 W/m2
04:02 18.6 °F 11.4 °F 29.95 in South 1.0 mph 1.0 mph 73% 0.00 in 0 W/m2
04:08 18.3 °F 11.4 °F 29.95 in South 1.0 mph 1.0 mph 74% 0.00 in 0 W/m2
04:14 17.9 °F 11.0 °F 29.95 in Calm     74% 0.00 in 0 W/m2
04:20 17.3 °F 10.1 °F 29.94 in Calm     73% 0.00 in 0 W/m2
04:26 17.1 °F 10.2 °F 29.94 in South 1.0 mph 2.0 mph 74% 0.00 in 0 W/m2
04:32 16.4 °F 9.6 °F 29.94 in South 1.0 mph 2.0 mph 74% 0.00 in 0 W/m2
04:38 16.3 °F 9.8 °F 29.94 in Calm   2.0 mph 75% 0.00 in 0 W/m2
04:44 16.3 °F 9.8 °F 29.93 in Calm   1.0 mph 75% 0.00 in 0 W/m2
04:50 16.0 °F 9.5 °F 29.93 in Calm     75% 0.00 in 0 W/m2
04:56 15.6 °F 9.1 °F 29.93 in Calm     75% 0.00 in 0 W/m2
05:02 15.3 °F 9.1 °F 29.93 in Calm     76% 0.00 in 0 W/m2
05:08 15.0 °F 9.1 °F 29.93 in NE 1.0 mph 2.0 mph 77% 0.00 in 0 W/m2
05:14 15.0 °F 9.4 °F 29.93 in NE 1.0 mph 1.0 mph 78% 0.00 in 0 W/m2
05:20 14.9 °F 9.3 °F 29.92 in Calm   1.0 mph 78% 0.00 in 0 W/m2
05:26 15.4 °F 10.1 °F 29.92 in Calm   1.0 mph 79% 0.00 in 0 W/m2
05:32 16.1 °F 11.0 °F 29.91 in Calm   2.0 mph 80% 0.00 in 0 W/m2
05:38 17.4 °F 11.4 °F 29.91 in ENE 1.0 mph 2.0 mph 77% 0.00 in 0 W/m2
05:44 18.0 °F 11.4 °F 29.91 in ENE 1.0 mph 3.0 mph 75% 0.00 in 0 W/m2
05:50 18.0 °F 11.4 °F 29.91 in ENE 1.0 mph 2.0 mph 75% 0.00 in 0 W/m2
05:56 17.9 °F 11.6 °F 29.90 in ENE 1.0 mph 2.0 mph 76% 0.00 in 0 W/m2
06:02 17.9 °F 11.9 °F 29.91 in Calm     77% 0.00 in 0 W/m2
06:08 18.2 °F 12.2 °F 29.90 in Calm     77% 0.00 in 0 W/m2
06:14 18.4 °F 12.4 °F 29.90 in Calm     77% 0.00 in 0 W/m2
06:20 18.5 °F 12.5 °F 29.90 in Calm     77% 0.00 in 0 W/m2
06:26 18.3 °F 12.3 °F 29.90 in Calm     77% 0.00 in 0 W/m2
06:32 18.1 °F 12.1 °F 29.89 in Calm     77% 0.00 in 0 W/m2
06:38 17.7 °F 12.0 °F 29.89 in Calm     78% 0.00 in 0 W/m2
06:44 17.5 °F 11.8 °F 29.89 in Calm     78% 0.00 in 0 W/m2
06:50 17.3 °F 11.6 °F 29.88 in Calm     78% 0.00 in 0 W/m2
06:56 17.2 °F 11.8 °F 29.88 in Calm     79% 0.00 in 0 W/m2
07:02 17.1 °F 11.7 °F 29.88 in Calm     79% 0.00 in 0 W/m2
07:08 17.2 °F 12.1 °F 29.88 in Calm     80% 0.00 in 0 W/m2
07:14 17.3 °F 12.5 °F 29.88 in Calm     81% 0.00 in 0 W/m2
07:20 17.3 °F 12.2 °F 29.87 in Calm     80% 0.00 in 0 W/m2
07:26 17.3 °F 12.2 °F 29.87 in Calm     80% 0.00 in 9 W/m2
07:32 17.2 °F 12.1 °F 29.87 in Calm     80% 0.00 in 14 W/m2
07:38 17.3 °F 12.2 °F 29.87 in Calm     80% 0.00 in 18 W/m2
07:44 17.4 °F 12.3 °F 29.87 in Calm     80% 0.00 in 21 W/m2
07:50 17.4 °F 12.3 °F 29.87 in Calm     80% 0.00 in 25 W/m2
07:56 17.4 °F 12.3 °F 29.87 in Calm     80% 0.00 in 28 W/m2
08:02 17.3 °F 12.2 °F 29.86 in Calm     80% 0.00 in 39 W/m2
08:08 17.4 °F 12.3 °F 29.86 in Calm     80% 0.00 in 51 W/m2
08:14 17.6 °F 12.5 °F 29.85 in Calm     80% 0.00 in 62 W/m2
08:20 17.9 °F 12.8 °F 29.85 in Calm     80% 0.00 in 81 W/m2
08:26 18.3 °F 12.9 °F 29.85 in Calm     79% 0.00 in 98 W/m2
08:32 19.2 °F 13.2 °F 29.85 in Calm     77% 0.00 in 105 W/m2
08:38 20.6 °F 13.6 °F 29.85 in Calm     74% 0.00 in 104 W/m2
08:46 25.0 °F 14.5 °F 29.85 in SW 1.0 mph 1.0 mph 64% 0.00 in 105 W/m2
08:52 28.0 °F 13.9 °F 29.84 in SSW 3.0 mph 3.0 mph 55% 0.00 in 105 W/m2
08:58 29.5 °F 13.6 °F 29.84 in SW 3.0 mph 3.0 mph 51% 0.00 in 111 W/m2
09:04 30.3 °F 12.9 °F 29.83 in WSW 3.0 mph 8.0 mph 48% 0.00 in 139 W/m2
09:10 30.9 °F 12.5 °F 29.83 in SSW 3.0 mph 6.0 mph 46% 0.00 in 155 W/m2
09:16 31.4 °F 13.0 °F 29.83 in SSW 4.0 mph 6.0 mph 46% 0.00 in 211 W/m2
09:22 31.9 °F 12.9 °F 29.83 in SW 4.0 mph 8.0 mph 45% 0.00 in 216 W/m2
09:28 32.3 °F 13.3 °F 29.83 in SW 4.0 mph 8.0 mph 45% 0.00 in 207 W/m2
09:34 32.5 °F 12.5 °F 29.82 in SW 4.0 mph 6.0 mph 43% 0.00 in 181 W/m2
09:40 32.5 °F 13.0 °F 29.82 in SSW 5.0 mph 5.0 mph 44% 0.00 in 127 W/m2
09:46 32.6 °F 12.0 °F 29.83 in WSW 4.0 mph 7.0 mph 42% 0.00 in 135 W/m2
09:52 32.8 °F 12.7 °F 29.83 in SSW 4.0 mph 4.0 mph 43% 0.00 in 199 W/m2
09:58 32.9 °F 12.8 °F 29.83 in SSW 4.0 mph 7.0 mph 43% 0.00 in 123 W/m2
10:04 32.9 °F 12.3 °F 29.83 in WSW 4.0 mph 6.0 mph 42% 0.00 in 95 W/m2
10:10 32.8 °F 12.7 °F 29.83 in SSW 4.0 mph 6.0 mph 43% 0.00 in 77 W/m2
10:16 32.4 °F 13.9 °F 29.82 in SSW 5.0 mph 8.0 mph 46% 0.00 in 84 W/m2
10:22 32.5 °F 13.5 °F 29.82 in WSW 4.0 mph 6.0 mph 45% 0.00 in 156 W/m2
10:28 33.0 °F 14.4 °F 29.83 in SSW 4.0 mph 8.0 mph 46% 0.00 in 200 W/m2
10:34 32.6 °F 18.2 °F 29.83 in SSW 6.0 mph 11.0 mph 55% 0.00 in 162 W/m2
10:40 31.9 °F 18.8 °F 29.83 in SW 8.0 mph 8.0 mph 58% 0.00 in 134 W/m2
10:46 31.6 °F 19.7 °F 29.83 in WSW 6.0 mph 12.0 mph 61% 0.00 in 137 W/m2
10:52 30.8 °F 20.8 °F 29.83 in WSW 7.0 mph 8.0 mph 66% 0.00 in 179 W/m2
10:58 30.5 °F 21.2 °F 29.83 in SW 6.0 mph 8.0 mph 68% 0.00 in 229 W/m2
11:04 30.5 °F 21.9 °F 29.83 in SW 5.0 mph 6.0 mph 70% 0.00 in 206 W/m2
11:10 30.1 °F 22.8 °F 29.83 in SSW 6.0 mph 6.0 mph 74% 0.00 in 193 W/m2
11:16 30.0 °F 23.4 °F 29.83 in West 6.0 mph 7.0 mph 76% 0.00 in 195 W/m2
11:22 30.1 °F 23.4 °F 29.83 in SW 4.0 mph 4.0 mph 76% 0.00 in 199 W/m2
11:28 30.1 °F 23.4 °F 29.82 in West 3.0 mph 5.0 mph 76% 0.00 in 200 W/m2
11:34 30.3 °F 23.3 °F 29.82 in SW 3.0 mph 5.0 mph 75% 0.00 in 279 W/m2
11:40 30.7 °F 23.7 °F 29.82 in WSW 3.0 mph 6.0 mph 75% 0.00 in 255 W/m2
11:46 30.7 °F 23.7 °F 29.82 in SW 3.0 mph 6.0 mph 75% 0.00 in 290 W/m2
11:52 31.1 °F 24.1 °F 29.81 in SSW 3.0 mph 5.0 mph 75% 0.00 in 260 W/m2
11:58 31.2 °F 24.2 °F 29.81 in West 3.0 mph 5.0 mph 75% 0.00 in 202 W/m2
12:04 31.0 °F 23.7 °F 29.80 in WSW 4.0 mph 4.0 mph 74% 0.00 in 127 W/m2
12:10 30.7 °F 23.7 °F 29.80 in WSW 4.0 mph 5.0 mph 75% 0.00 in 93 W/m2
12:16 30.4 °F 23.4 °F 29.80 in WNW 5.0 mph 6.0 mph 75% 0.00 in 156 W/m2
12:22 30.5 °F 23.5 °F 29.80 in SSW 5.0 mph 7.0 mph 75% 0.00 in 197 W/m2
12:28 30.7 °F 24.0 °F 29.79 in SW 4.0 mph 7.0 mph 76% 0.00 in 209 W/m2
12:34 30.7 °F 23.7 °F 29.79 in SW 4.0 mph 9.0 mph 75% 0.00 in 200 W/m2
12:40 30.9 °F 23.9 °F 29.78 in SW 4.0 mph 4.0 mph 75% 0.00 in 202 W/m2
12:46 31.0 °F 24.0 °F 29.78 in SW 4.0 mph 5.0 mph 75% 0.00 in 225 W/m2
12:52 31.3 °F 24.0 °F 29.78 in SSW 3.0 mph 4.0 mph 74% 0.00 in 193 W/m2
13:04 31.4 °F 24.1 °F 29.77 in SSW 5.0 mph 5.0 mph 74% 0.00 in 213 W/m2
13:10 31.6 °F 23.9 °F 29.77 in South 4.0 mph 5.0 mph 73% 0.00 in 172 W/m2
13:16 31.7 °F 24.0 °F 29.77 in SSW 3.0 mph 5.0 mph 73% 0.00 in 144 W/m2
13:22 31.7 °F 23.7 °F 29.77 in SW 3.0 mph 5.0 mph 72% 0.00 in 109 W/m2
13:28 31.7 °F 23.7 °F 29.77 in SSW 4.0 mph 5.0 mph 72% 0.00 in 74 W/m2
13:34 31.7 °F 23.7 °F 29.77 in SW 3.0 mph 6.0 mph 72% 0.00 in 67 W/m2
13:40 31.8 °F 23.8 °F 29.76 in SW 2.0 mph 2.0 mph 72% 0.00 in 56 W/m2
13:46 32.0 °F 23.7 °F 29.76 in WSW 2.0 mph 3.0 mph 71% 0.00 in 49 W/m2
13:52 32.2 °F 23.2 °F 29.75 in SW 2.0 mph 3.0 mph 69% 0.00 in 49 W/m2
13:58 32.6 °F 22.8 °F 29.75 in West 3.0 mph 6.0 mph 67% 0.00 in 49 W/m2
14:04 32.9 °F 23.1 °F 29.75 in West 5.0 mph 8.0 mph 67% 0.00 in 44 W/m2
14:10 33.0 °F 23.2 °F 29.75 in West 6.0 mph 6.0 mph 67% 0.00 in 49 W/m2
14:16 32.9 °F 23.5 °F 29.75 in SW 5.0 mph 6.0 mph 68% 0.00 in 51 W/m2
14:22 33.0 °F 23.6 °F 29.75 in SW 6.0 mph 10.0 mph 68% 0.00 in 53 W/m2
14:28 32.9 °F 23.5 °F 29.75 in NW 6.0 mph 10.0 mph 68% 0.00 in 51 W/m2
14:34 33.0 °F 23.6 °F 29.75 in WSW 6.0 mph 12.0 mph 68% 0.00 in 56 W/m2
14:40 33.0 °F 23.6 °F 29.75 in SW 6.0 mph 14.0 mph 68% 0.00 in 63 W/m2
14:46 33.0 °F 23.6 °F 29.75 in West 6.0 mph 14.0 mph 68% 0.00 in 67 W/m2
14:52 33.0 °F 23.9 °F 29.75 in West 6.0 mph 7.0 mph 69% 0.00 in 69 W/m2
14:58 33.0 °F 23.9 °F 29.75 in West 6.0 mph 12.0 mph 69% 0.00 in 60 W/m2
15:04 33.0 °F 23.9 °F 29.75 in WSW 6.0 mph 6.0 mph 69% 0.00 in 62 W/m2
15:10 33.0 °F 23.9 °F 29.75 in WSW 5.0 mph 5.0 mph 69% 0.00 in 60 W/m2
15:16 33.1 °F 24.4 °F 29.74 in West 4.0 mph 5.0 mph 70% 0.00 in 58 W/m2
15:22 33.1 °F 24.0 °F 29.75 in SW 5.0 mph 9.0 mph 69% 0.00 in 58 W/m2
15:28 33.1 °F 24.4 °F 29.75 in West 5.0 mph 9.0 mph 70% 0.00 in 44 W/m2
15:34 33.0 °F 24.3 °F 29.75 in West 5.0 mph 5.0 mph 70% 0.00 in 33 W/m2
15:40 33.0 °F 24.6 °F 29.75 in WSW 5.0 mph 5.0 mph 71% 0.00 in 28 W/m2
15:46 32.9 °F 24.5 °F 29.75 in West 5.0 mph 11.0 mph 71% 0.00 in 28 W/m2
15:52 32.9 °F 24.9 °F 29.75 in West 5.0 mph 7.0 mph 72% 0.00 in 19 W/m2
15:58 32.8 °F 24.8 °F 29.75 in West 4.0 mph 10.0 mph 72% 0.00 in 19 W/m2
16:04 32.8 °F 24.8 °F 29.76 in West 4.0 mph 6.0 mph 72% 0.00 in 16 W/m2
16:10 32.8 °F 24.8 °F 29.76 in WSW 5.0 mph 5.0 mph 72% 0.00 in 14 W/m2
16:16 33.0 °F 25.0 °F 29.77 in SW 6.0 mph 10.0 mph 72% 0.00 in 12 W/m2
16:22 32.9 °F 25.2 °F 29.77 in West 5.0 mph 6.0 mph 73% 0.00 in 12 W/m2
16:28 32.9 °F 25.2 °F 29.77 in SSW 4.0 mph 10.0 mph 73% 0.00 in 9 W/m2
16:34 32.9 °F 25.2 °F 29.77 in WNW 5.0 mph 6.0 mph 73% 0.00 in 9 W/m2
16:40 32.8 °F 25.4 °F 29.77 in WSW 4.0 mph 4.0 mph 74% 0.00 in 7 W/m2
16:46 32.8 °F 25.4 °F 29.77 in WSW 5.0 mph 6.0 mph 74% 0.00 in 5 W/m2
16:52 32.8 °F 25.4 °F 29.78 in WSW 4.0 mph 5.0 mph 74% 0.00 in 0 W/m2
16:58 32.7 °F 25.3 °F 29.78 in SW 3.0 mph 5.0 mph 74% 0.00 in 0 W/m2
17:04 32.7 °F 25.3 °F 29.78 in West 4.0 mph 5.0 mph 74% 0.00 in 0 W/m2
17:10 32.7 °F 25.3 °F 29.78 in West 3.0 mph 4.0 mph 74% 0.00 in 0 W/m2
17:16 32.6 °F 25.6 °F 29.79 in WSW 3.0 mph 5.0 mph 75% 0.00 in 0 W/m2
17:22 32.5 °F 25.5 °F 29.80 in WNW 3.0 mph 3.0 mph 75% 0.00 in 0 W/m2
17:28 32.5 °F 25.5 °F 29.80 in West 4.0 mph 5.0 mph 75% 0.00 in 0 W/m2
17:34 32.5 °F 25.8 °F 29.80 in WSW 4.0 mph 4.0 mph 76% 0.00 in 0 W/m2
17:40 32.4 °F 25.7 °F 29.80 in West 3.0 mph 3.0 mph 76% 0.00 in 0 W/m2
17:46 32.3 °F 25.9 °F 29.80 in SW 3.0 mph 8.0 mph 77% 0.00 in 0 W/m2
17:52 32.3 °F 25.9 °F 29.80 in West 3.0 mph 4.0 mph 77% 0.00 in 0 W/m2
17:58 32.2 °F 25.8 °F 29.81 in WSW 3.0 mph 5.0 mph 77% 0.00 in 0 W/m2
18:04 32.2 °F 26.1 °F 29.81 in West 3.0 mph 4.0 mph 78% 0.00 in 0 W/m2
18:10 32.1 °F 26.0 °F 29.81 in West 2.0 mph 2.0 mph 78% 0.00 in 0 W/m2
18:16 32.2 °F 26.1 °F 29.81 in WSW 3.0 mph 3.0 mph 78% 0.00 in 0 W/m2
18:22 32.2 °F 26.1 °F 29.82 in WNW 3.0 mph 3.0 mph 78% 0.00 in 0 W/m2
18:28 32.2 °F 26.1 °F 29.82 in WSW 3.0 mph 5.0 mph 78% 0.00 in 0 W/m2
18:34 32.2 °F 26.1 °F 29.83 in WSW 2.0 mph 4.0 mph 78% 0.00 in 0 W/m2
18:40 32.2 °F 26.1 °F 29.82 in WSW 2.0 mph 3.0 mph 78% 0.00 in 0 W/m2
18:46 32.3 °F 26.2 °F 29.83 in SSW 3.0 mph 5.0 mph 78% 0.00 in 0 W/m2
18:52 32.5 °F 26.1 °F 29.83 in West 3.0 mph 4.0 mph 77% 0.00 in 0 W/m2
18:58 32.6 °F 26.2 °F 29.83 in South 3.0 mph 9.0 mph 77% 0.00 in 0 W/m2
19:04 32.7 °F 26.3 °F 29.83 in WNW 4.0 mph 6.0 mph 77% 0.00 in 0 W/m2
19:10 32.7 °F 26.3 °F 29.83 in West 4.0 mph 4.0 mph 77% 0.00 in 0 W/m2
19:16 32.8 °F 26.4 °F 29.83 in WSW 4.0 mph 5.0 mph 77% 0.00 in 0 W/m2
19:22 32.9 °F 26.5 °F 29.83 in WSW 4.0 mph 4.0 mph 77% 0.00 in 0 W/m2
19:28 33.0 °F 26.3 °F 29.83 in WSW 4.0 mph 5.0 mph 76% 0.00 in 0 W/m2
19:34 33.0 °F 26.3 °F 29.83 in West 4.0 mph 5.0 mph 76% 0.00 in 0 W/m2
19:40 33.1 °F 26.4 °F 29.84 in WSW 5.0 mph 6.0 mph 76% 0.00 in 0 W/m2
19:46 33.2 °F 26.1 °F 29.84 in West 5.0 mph 10.0 mph 75% 0.00 in 0 W/m2
19:52 33.3 °F 25.9 °F 29.84 in West 5.0 mph 9.0 mph 74% 0.00 in 0 W/m2
19:58 33.3 °F 26.2 °F 29.84 in SW 4.0 mph 9.0 mph 75% 0.00 in 0 W/m2
20:04 33.3 °F 25.9 °F 29.84 in West 4.0 mph 9.0 mph 74% 0.00 in 0 W/m2
20:10 33.3 °F 25.9 °F 29.84 in West 4.0 mph 4.0 mph 74% 0.00 in 0 W/m2
20:16 33.3 °F 25.9 °F 29.85 in NNW 4.0 mph 9.0 mph 74% 0.00 in 0 W/m2
20:22 33.4 °F 26.0 °F 29.84 in WSW 5.0 mph 7.0 mph 74% 0.00 in 0 W/m2
20:28 33.3 °F 25.9 °F 29.84 in WSW 4.0 mph 7.0 mph 74% 0.00 in 0 W/m2
20:34 33.2 °F 25.8 °F 29.85 in West 3.0 mph 5.0 mph 74% 0.00 in 0 W/m2
20:40 33.3 °F 25.6 °F 29.86 in WSW 3.0 mph 8.0 mph 73% 0.00 in 0 W/m2
20:46 33.3 °F 25.9 °F 29.86 in West 4.0 mph 8.0 mph 74% 0.00 in 0 W/m2
20:52 33.0 °F 26.3 °F 29.87 in NW 4.0 mph 9.0 mph 76% 0.00 in 0 W/m2
20:58 31.7 °F 27.1 °F 29.88 in WNW 6.0 mph 9.0 mph 83% 0.00 in 0 W/m2
21:04 30.8 °F 27.4 °F 29.88 in WNW 5.0 mph 6.0 mph 87% 0.00 in 0 W/m2
21:10 30.5 °F 27.6 °F 29.88 in West 5.0 mph 5.0 mph 89% 0.00 in 0 W/m2
21:16 30.4 °F 27.5 °F 29.89 in WNW 5.0 mph 10.0 mph 89% 0.00 in 0 W/m2
21:22 30.4 °F 27.8 °F 29.89 in NW 5.0 mph 7.0 mph 90% 0.00 in 0 W/m2
21:28 30.4 °F 27.8 °F 29.90 in NW 4.0 mph 7.0 mph 90% 0.00 in 0 W/m2
21:34 30.4 °F 28.1 °F 29.90 in WNW 4.0 mph 6.0 mph 91% 0.00 in 0 W/m2
21:40 30.4 °F 28.1 °F 29.90 in WNW 4.0 mph 5.0 mph 91% 0.00 in 0 W/m2
21:46 30.4 °F 28.1 °F 29.91 in West 4.0 mph 5.0 mph 91% 0.00 in 0 W/m2
21:52 30.5 °F 28.2 °F 29.91 in WNW 3.0 mph 3.0 mph 91% 0.00 in 0 W/m2
21:58 30.5 °F 27.9 °F 29.91 in WNW 3.0 mph 3.0 mph 90% 0.00 in 0 W/m2
22:04 30.5 °F 27.9 °F 29.91 in WNW 3.0 mph 4.0 mph 90% 0.00 in 0 W/m2
22:10 30.5 °F 27.6 °F 29.91 in NW 3.0 mph 3.0 mph 89% 0.00 in 0 W/m2
22:16 30.4 °F 27.0 °F 29.91 in NW 2.0 mph 3.0 mph 87% 0.00 in 0 W/m2
22:22 30.3 °F 26.3 °F 29.92 in NW 2.0 mph 3.0 mph 85% 0.00 in 0 W/m2
22:28 30.4 °F 25.6 °F 29.92 in WNW 3.0 mph 5.0 mph 82% 0.00 in 0 W/m2
22:34 30.5 °F 24.8 °F 29.92 in WNW 4.0 mph 5.0 mph 79% 0.00 in 0 W/m2
22:40 30.7 °F 24.3 °F 29.92 in West 5.0 mph 5.0 mph 77% 0.00 in 0 W/m2
22:46 30.7 °F 23.7 °F 29.92 in WNW 5.0 mph 6.0 mph 75% 0.00 in 0 W/m2
22:52 30.7 °F 23.4 °F 29.92 in NW 5.0 mph 8.0 mph 74% 0.00 in 0 W/m2
22:58 30.7 °F 23.1 °F 29.93 in NW 5.0 mph 8.0 mph 73% 0.00 in 0 W/m2
23:04 30.6 °F 23.3 °F 29.93 in WNW 4.0 mph 5.0 mph 74% 0.00 in 0 W/m2
23:10 30.5 °F 23.2 °F 29.94 in NW 4.0 mph 4.0 mph 74% 0.00 in 0 W/m2
23:16 30.4 °F 22.8 °F 29.94 in WNW 4.0 mph 5.0 mph 73% 0.00 in 0 W/m2
23:22 30.3 °F 22.7 °F 29.94 in WNW 5.0 mph 5.0 mph 73% 0.00 in 0 W/m2
23:28 30.3 °F 22.0 °F 29.94 in NW 5.0 mph 9.0 mph 71% 0.00 in 0 W/m2
23:34 30.2 °F 21.6 °F 29.94 in NW 6.0 mph 6.0 mph 70% 0.00 in 0 W/m2
23:40 30.2 °F 21.2 °F 29.94 in West 5.0 mph 9.0 mph 69% 0.00 in 0 W/m2
23:46 30.1 °F 20.8 °F 29.94 in WNW 4.0 mph 9.0 mph 68% 0.00 in 0 W/m2
23:52 30.1 °F 20.5 °F 29.95 in WNW 4.0 mph 4.0 mph 67% 0.00 in 0 W/m2
23:58 29.9 °F 19.6 °F 29.95 in WNW 4.0 mph 6.0 mph 65% 0.00 in 0 W/m2
Country Meadow, Clay, NY, USA
Compliments of Weather Underground - 2 mb